Mossbank, Canada
Current Conditions -  °F | °C
As of 7:32 PM on Friday 19 Dec 2014 (Local Time) from CYQR Reporting Station
Haze Haze  
Wind Chill:   Ceiling: 300
Heat Index: 16°   Visibility: 2mi
Dew Point: 14°   Wind: 10mph
Humidity: 93%   Direction: 140°SE
Pressure: 29.91"   Gusts: NA
Location:  49.93°N, 105.97°W
Report Text: CYQR 200132Z 14009KT 2SM BR OVC003 M09/M10 A2991 RMK SF8 SLP168
Loading
Personal Weather Stations






























Interactive Weather Map New forecast layout! Learn more

10-Day Weather Forecast

Advertisements
Track Severe Weather on mobile